Time;durP1;ratioP1;P1;durP2;ratioP2;P2;SDS_P1;SDS_P2;PMS_P1;PMS_P2;Temp;Humidity;BMP_temperature;BMP_pressure;BME280_temperature;BME280_humidity;BME280_pressure;Samples;Min_cycle;Max_cycle;Signal;HPM_P1;HPM_P2
2023/07/22 00:03:10;;;;;;;4.60;4.10;;;;;;;18.01;65.34;99220.30;218064;1257;139822;-71
2023/07/22 00:08:15;;;;;;;13.10;4.40;;;;;;;18.03;65.43;99217.47;218737;1256;139846;-73
2023/07/22 00:13:20;;;;;;;4.50;3.90;;;;;;;18.02;65.58;99223.91;217785;1256;140203;-69
2023/07/22 00:18:27;;;;;;;4.10;3.80;;;;;;;17.97;65.67;99222.85;217975;1255;140595;-66
2023/07/22 00:23:31;;;;;;;23.40;5.60;;;;;;;17.94;65.85;99213.34;218224;1257;679455;-67
2023/07/22 00:28:35;;;;;;;4.30;3.90;;;;;;;17.93;66.01;99215.70;220554;1257;140046;-67
2023/07/22 00:33:40;;;;;;;3.60;3.30;;;;;;;17.89;66.10;99217.97;218822;1257;140051;-66
2023/07/22 00:38:44;;;;;;;3.50;3.20;;;;;;;17.89;66.10;99211.08;219300;1255;140024;-70
2023/07/22 00:43:49;;;;;;;3.30;3.10;;;;;;;17.90;66.07;99210.77;220290;1256;141796;-69
2023/07/22 00:48:54;;;;;;;3.90;3.60;;;;;;;17.90;65.96;99203.98;219112;1256;140625;-68
2023/07/22 00:53:59;;;;;;;3.60;3.40;;;;;;;17.94;65.68;99197.35;219630;1256;140251;-71
2023/07/22 00:59:02;;;;;;;3.00;2.70;;;;;;;17.95;65.51;99204.50;219468;1256;139834;-69
2023/07/22 01:04:07;;;;;;;4.90;3.40;;;;;;;17.91;65.31;99207.36;218679;1257;140995;-68
2023/07/22 01:09:11;;;;;;;3.60;3.30;;;;;;;17.85;65.14;99193.06;219020;1255;140916;-66
2023/07/22 01:14:15;;;;;;;3.60;3.20;;;;;;;17.81;65.06;99185.36;217921;1256;139747;-66
2023/07/22 01:19:21;;;;;;;4.00;3.60;;;;;;;17.78;65.14;99186.05;217710;1257;140643;-66
2023/07/22 01:24:26;;;;;;;3.30;3.00;;;;;;;17.77;65.03;99187.42;218638;1257;139756;-66
2023/07/22 01:29:30;;;;;;;5.10;4.10;;;;;;;17.77;64.92;99184.02;218766;1256;140254;-65
2023/07/22 01:34:37;;;;;;;5.20;3.70;;;;;;;17.76;64.90;99180.70;217534;1256;141151;-66
2023/07/22 01:39:43;;;;;;;7.10;3.30;;;;;;;17.76;64.96;99181.29;218227;1256;140885;-68
2023/07/22 01:44:48;;;;;;;6.60;3.90;;;;;;;17.74;64.86;99182.62;217849;1257;140587;-69
2023/07/22 01:49:53;;;;;;;5.40;3.70;;;;;;;17.68;65.15;99178.20;218728;1256;140737;-69
2023/07/22 01:54:57;;;;;;;4.90;3.40;;;;;;;17.62;65.37;99179.95;218408;1256;143717;-71
2023/07/22 02:00:05;;;;;;;4.70;3.10;;;;;;;17.58;65.53;99181.13;217675;1256;140988;-68
2023/07/22 02:05:10;;;;;;;3.60;3.30;;;;;;;17.53;65.47;99185.68;218445;1256;141230;-68
2023/07/22 02:10:14;;;;;;;3.40;3.20;;;;;;;17.50;65.70;99188.36;219100;1255;139694;-69
2023/07/22 02:15:22;;;;;;;3.70;3.30;;;;;;;17.46;65.73;99192.63;220690;1256;139448;-69
2023/07/22 02:20:28;;;;;;;3.50;3.20;;;;;;;17.39;65.69;99189.15;220710;1255;141706;-71
2023/07/22 02:25:32;;;;;;;3.10;2.80;;;;;;;17.33;65.63;99193.01;218880;1256;139690;-65
2023/07/22 02:30:37;;;;;;;3.80;2.80;;;;;;;17.27;65.69;99196.32;220388;1256;139876;-66
2023/07/22 02:35:42;;;;;;;3.80;2.80;;;;;;;17.19;65.77;99206.55;220417;1256;139581;-66
2023/07/22 02:40:45;;;;;;;3.40;2.40;;;;;;;17.13;65.70;99210.88;220369;1256;140005;-67
2023/07/22 02:45:53;;;;;;;7.60;2.90;;;;;;;17.12;65.68;99212.89;218930;1256;140791;-68
2023/07/22 02:51:10;;;;;;;12.90;4.40;;;;;;;17.11;65.74;99216.80;219295;1256;140282;-67
2023/07/22 02:56:15;;;;;;;3.90;2.30;;;;;;;17.09;65.70;99223.73;218613;1257;140199;-68
2023/07/22 03:01:20;;;;;;;2.70;2.50;;;;;;;17.07;65.70;99233.40;217927;1259;140023;-67
2023/07/22 03:06:26;;;;;;;3.50;2.40;;;;;;;17.03;65.63;99233.93;218778;1256;139967;-68
2023/07/22 03:11:31;;;;;;;4.70;2.40;;;;;;;16.98;65.64;99242.06;217672;1259;140723;-67
2023/07/22 03:16:35;;;;;;;2.80;2.50;;;;;;;16.94;65.65;99248.67;218663;1256;140534;-68
2023/07/22 03:21:40;;;;;;;3.10;2.10;;;;;;;16.94;65.74;99248.89;218229;1259;139574;-68
2023/07/22 03:26:44;;;;;;;1.90;1.80;;;;;;;16.93;65.75;99249.92;217978;1256;140699;-67
2023/07/22 03:31:49;;;;;;;2.20;1.90;;;;;;;16.86;65.69;99255.40;219072;1256;140946;-67
2023/07/22 03:36:54;;;;;;;3.60;2.50;;;;;;;16.79;65.80;99251.79;218904;1256;140283;-68
2023/07/22 03:41:59;;;;;;;3.90;2.90;;;;;;;16.80;65.94;99253.16;218585;1257;140086;-66
2023/07/22 03:47:04;;;;;;;2.60;2.40;;;;;;;16.83;66.00;99250.95;218532;1256;139849;-67
2023/07/22 03:52:08;;;;;;;3.00;1.70;;;;;;;16.84;66.15;99259.63;218332;1256;144315;-67
2023/07/22 03:57:13;;;;;;;5.90;2.20;;;;;;;16.80;66.28;99268.34;219463;1256;140316;-67
2023/07/22 04:02:18;;;;;;;2.20;2.00;;;;;;;16.82;66.47;99275.26;217910;1259;139965;-67
2023/07/22 04:07:22;;;;;;;3.20;2.20;;;;;;;16.86;66.42;99275.05;219298;1255;141346;-66
2023/07/22 04:12:27;;;;;;;2.80;2.60;;;;;;;16.89;66.54;99277.05;219192;1255;140721;-66
2023/07/22 04:17:31;;;;;;;2.20;1.90;;;;;;;16.97;66.55;99275.25;220194;1256;139950;-69
2023/07/22 04:22:35;;;;;;;5.10;2.20;;;;;;;17.07;66.48;99270.22;220368;1256;142200;-69
2023/07/22 04:27:39;;;;;;;1.90;1.70;;;;;;;17.24;66.40;99268.70;220586;1256;140474;-68
2023/07/22 04:32:44;;;;;;;3.20;1.80;;;;;;;17.27;66.24;99273.42;218758;1254;139698;-66
2023/07/22 04:37:49;;;;;;;1.80;1.40;;;;;;;17.21;66.23;99288.77;219621;1256;139814;-66
2023/07/22 04:42:54;;;;;;;2.40;2.20;;;;;;;17.18;66.39;99287.48;218355;1256;140763;-66
2023/07/22 04:47:59;;;;;;;2.10;2.00;;;;;;;17.31;66.46;99290.17;218118;1256;140536;-65
2023/07/22 04:53:03;;;;;;;3.50;2.30;;;;;;;17.61;66.32;99295.26;217923;1257;139797;-67
2023/07/22 04:58:09;;;;;;;3.60;2.10;;;;;;;17.87;66.23;99301.26;219264;1256;140886;-66
2023/07/22 05:03:13;;;;;;;2.50;2.10;;;;;;;18.01;65.85;99310.76;218012;1257;143708;-66
2023/07/22 05:08:17;;;;;;;2.30;2.20;;;;;;;18.23;65.43;99314.55;218264;1257;140010;-65
2023/07/22 05:13:21;;;;;;;2.80;2.60;;;;;;;18.88;64.55;99316.92;218300;1259;140080;-65
2023/07/22 05:18:26;;;;;;;2.40;2.20;;;;;;;19.32;63.98;99321.63;218262;1255;139867;-66
2023/07/22 05:23:31;;;;;;;2.60;2.40;;;;;;;20.13;63.14;99321.50;218071;1257;140990;-65
2023/07/22 05:28:35;;;;;;;5.90;2.30;;;;;;;22.23;60.51;99316.94;218195;1256;140000;-66
2023/07/22 05:33:40;;;;;;;4.50;2.40;;;;;;;23.19;58.70;99323.33;217875;1256;139984;-66
2023/07/22 05:38:45;;;;;;;2.30;2.20;;;;;;;25.51;55.93;99321.98;218525;1256;140374;-65
2023/07/22 05:43:50;;;;;;;3.00;2.30;;;;;;;26.79;53.35;99324.96;217883;1256;139186;-66
2023/07/22 05:48:54;;;;;;;2.10;2.00;;;;;;;29.53;49.61;99328.17;217985;1256;139090;-66
2023/07/22 05:53:59;;;;;;;1.70;1.60;;;;;;;32.10;45.70;99332.39;218416;1254;139072;-66
2023/07/22 05:59:04;;;;;;;;;;;;;;;33.96;42.31;99330.57;218185;1254;141679;-67
2023/07/22 06:04:09;;;;;;;1.70;1.60;;;;;;;34.91;38.96;99328.92;220140;1255;125946;-67
2023/07/22 06:09:14;;;;;;;3.20;1.50;;;;;;;35.43;37.28;99335.98;218155;1254;139234;-67
2023/07/22 06:14:19;;;;;;;1.20;1.20;;;;;;;36.48;35.48;99349.01;218125;1254;139595;-68
2023/07/22 06:19:24;;;;;;;3.20;1.30;;;;;;;37.05;33.83;99353.39;220425;1254;140342;-67
2023/07/22 06:24:29;;;;;;;1.20;1.00;;;;;;;37.67;32.62;99350.64;218751;1254;139606;-69
2023/07/22 06:29:33;;;;;;;1.40;1.30;;;;;;;37.26;32.44;99349.55;219504;1254;141619;-68
2023/07/22 06:34:41;;;;;;;0.80;0.80;;;;;;;37.11;31.10;99347.73;220477;1254;139500;-68
2023/07/22 06:39:46;;;;;;;0.80;0.80;;;;;;;36.20;30.98;99358.41;220107;1254;139424;-68
2023/07/22 06:44:50;;;;;;;1.20;1.10;;;;;;;35.94;30.79;99360.00;220416;1254;151087;-67
2023/07/22 06:49:54;;;;;;;1.20;1.10;;;;;;;34.88;31.14;99363.98;218497;1254;140349;-69
2023/07/22 06:54:58;;;;;;;1.20;1.10;;;;;;;33.80;31.36;99366.89;218985;1254;138886;-68
2023/07/22 07:00:03;;;;;;;1.20;1.10;;;;;;;33.43;31.59;99366.81;218364;1257;140023;-67
2023/07/22 07:05:07;;;;;;;1.20;1.10;;;;;;;32.96;31.80;99366.34;218840;1259;139233;-67
2023/07/22 07:10:12;;;;;;;2.50;1.30;;;;;;;33.03;31.84;99367.84;219070;1257;139023;-67
2023/07/22 07:15:16;;;;;;;1.00;1.00;;;;;;;33.81;31.64;99368.73;218823;1258;139214;-67
2023/07/22 07:20:20;;;;;;;1.40;1.30;;;;;;;34.44;30.81;99372.98;217796;1256;140109;-65
2023/07/22 07:25:25;;;;;;;2.20;1.10;;;;;;;35.13;30.90;99369.77;218244;1260;139416;-66
2023/07/22 07:30:32;;;;;;;1.50;1.40;;;;;;;34.91;30.41;99374.75;217525;1259;139539;-66
2023/07/22 07:35:36;;;;;;;4.90;2.00;;;;;;;34.19;30.37;99380.74;218905;1257;139248;-69
2023/07/22 07:40:41;;;;;;;1.50;1.40;;;;;;;32.97;30.93;99390.63;217978;1256;140917;-67
2023/07/22 07:45:45;;;;;;;3.50;1.50;;;;;;;32.24;31.60;99389.08;217774;1255;139913;-65
2023/07/22 07:50:50;;;;;;;3.60;1.70;;;;;;;31.95;32.05;99399.44;218270;1256;139070;-66
2023/07/22 07:55:55;;;;;;;1.80;1.70;;;;;;;31.62;32.81;99398.51;218789;1257;139010;-70
2023/07/22 08:00:59;;;;;;;2.50;1.50;;;;;;;31.48;33.08;99404.23;219242;1257;140205;-71
2023/07/22 08:06:04;;;;;;;3.00;1.40;;;;;;;31.24;32.84;99414.42;217930;1256;139699;-77
2023/07/22 08:11:10;;;;;;;1.60;1.50;;;;;;;30.39;32.94;99418.08;219295;1257;139415;-66
2023/07/22 08:16:15;;;;;;;1.40;1.40;;;;;;;29.81;33.59;99427.56;218639;1256;139670;-66
2023/07/22 08:21:19;;;;;;;2.40;1.90;;;;;;;28.70;34.00;99431.63;218584;1256;139900;-66
2023/07/22 08:26:23;;;;;;;2.70;2.50;;;;;;;27.99;35.01;99430.45;220506;1257;139591;-70
2023/07/22 08:31:28;;;;;;;2.00;1.90;;;;;;;27.41;36.08;99432.69;220402;1256;139633;-68
2023/07/22 08:36:33;;;;;;;2.60;1.90;;;;;;;27.37;36.70;99434.40;220479;1259;139334;-67
2023/07/22 08:41:36;;;;;;;2.20;2.10;;;;;;;27.12;36.79;99436.19;220559;1256;140473;-68
2023/07/22 08:46:42;;;;;;;1.50;1.40;;;;;;;27.00;37.59;99437.30;219310;1257;139499;-69
2023/07/22 08:51:47;;;;;;;5.80;2.00;;;;;;;27.34;38.02;99437.52;218821;1256;139103;-68
2023/07/22 08:56:52;;;;;;;;;;;;;;;27.04;37.34;99438.95;219449;1258;141097;-68
2023/07/22 09:01:57;;;;;;;2.10;2.00;;;;;;;27.09;38.22;99435.57;218475;1259;126503;-67
2023/07/22 09:07:03;;;;;;;3.00;2.00;;;;;;;27.52;37.92;99436.34;218131;1257;139277;-68
2023/07/22 09:12:09;;;;;;;2.20;2.00;;;;;;;27.43;37.06;99442.99;218479;1257;139424;-67
2023/07/22 09:17:13;;;;;;;1.40;1.30;;;;;;;27.56;37.01;99447.85;218209;1257;139794;-68
2023/07/22 09:22:18;;;;;;;1.30;1.30;;;;;;;27.98;37.11;99454.00;218439;1257;140398;-67
2023/07/22 09:27:35;;;;;;;2.30;2.10;;;;;;;27.91;36.51;99451.73;218152;1257;139476;-67
2023/07/22 09:32:43;;;;;;;2.80;1.90;;;;;;;27.84;36.48;99461.11;217885;1257;140224;-68
2023/07/22 09:37:52;;;;;;;1.70;1.60;;;;;;;27.87;36.24;99470.50;218374;1257;138839;-67
2023/07/22 09:43:05;;;;;;;5.80;1.80;;;;;;;28.09;35.98;99462.62;218648;1257;139186;-67
2023/07/22 09:48:10;;;;;;;1.40;1.20;;;;;;;28.26;35.66;99461.84;218273;1256;140531;-68
2023/07/22 09:53:15;;;;;;;;;;;;;;;28.35;35.52;99461.66;218142;1260;140102;-68
2023/07/22 09:58:24;;;;;;;;;;;;;;;28.20;35.38;99466.55;218370;1256;126209;-67
2023/07/22 10:03:32;;;;;;;1.40;1.30;;;;;;;27.90;34.86;99464.77;218734;1260;127878;-69
2023/07/22 10:08:38;;;;;;;10.70;2.10;;;;;;;27.88;34.66;99466.45;217717;1259;139506;-69
2023/07/22 10:13:42;;;;;;;1.70;1.40;;;;;;;27.59;34.61;99474.45;217849;1257;140113;-68
2023/07/22 10:18:49;;;;;;;2.90;2.70;;;;;;;27.10;35.01;99473.73;219360;1257;140096;-70
2023/07/22 10:23:54;;;;;;;;;;;;;;;26.96;35.56;99472.27;218010;1257;139250;-68
2023/07/22 10:28:59;;;;;;;1.90;1.80;;;;;;;27.12;36.07;99471.85;219912;1256;125568;-68
2023/07/22 10:34:04;;;;;;;1.90;1.80;;;;;;;27.05;35.62;99477.60;220139;1257;140680;-66
2023/07/22 10:39:08;;;;;;;2.20;2.10;;;;;;;26.46;35.43;99481.77;220678;1257;139744;-67
2023/07/22 10:44:13;;;;;;;4.30;2.30;;;;;;;26.05;36.21;99486.31;220647;1256;140395;-71
2023/07/22 10:49:18;;;;;;;2.20;2.10;;;;;;;26.56;36.77;99483.56;218761;1259;140086;-64
2023/07/22 10:54:34;;;;;;;2.40;2.30;;;;;;;26.32;36.63;99484.90;219066;1259;139452;-66
2023/07/22 10:59:49;;;;;;;3.30;2.10;;;;;;;25.84;36.69;99496.29;218174;1257;139276;-80
2023/07/22 11:05:02;;;;;;;6.10;2.70;;;;;;;26.23;37.43;99490.92;219113;1259;139443;-72
2023/07/22 11:10:18;;;;;;;2.40;2.30;;;;;;;26.75;37.42;99489.50;218771;1257;139025;-68
2023/07/22 11:15:23;;;;;;;;;;;;;;;26.68;36.76;99496.33;218766;1259;139390;-66
2023/07/22 11:20:31;;;;;;;2.60;2.40;;;;;;;26.98;37.13;99501.70;219154;1257;125365;-78
2023/07/22 11:25:41;;;;;;;5.20;2.50;;;;;;;27.03;36.48;99519.52;218429;1257;139107;-71
2023/07/22 11:30:46;;;;;;;3.50;2.40;;;;;;;26.63;35.99;99523.53;218270;1257;140264;-69
2023/07/22 11:35:50;;;;;;;2.90;2.70;;;;;;;26.14;36.29;99529.76;218483;1257;140852;-74
2023/07/22 11:40:58;;;;;;;3.10;2.90;;;;;;;26.09;36.52;99532.10;218801;1259;210009;-72
2023/07/22 11:46:06;;;;;;;3.00;1.70;;;;;;;26.37;36.31;99523.30;219100;1257;139572;-72
2023/07/22 11:51:12;;;;;;;3.40;2.30;;;;;;;25.96;35.79;99521.30;217911;1259;140021;-77
2023/07/22 11:56:28;;;;;;;2.50;2.10;;;;;;;25.46;35.77;99517.23;218467;1255;139523;-66
2023/07/22 12:01:33;;;;;;;8.00;2.20;;;;;;;25.72;36.16;99521.24;218364;1259;140012;-72
2023/07/22 12:06:40;;;;;;;;;;;;;;;25.64;36.27;99511.07;219829;1256;139642;-66
2023/07/22 12:11:45;;;;;;;2.30;2.20;;;;;;;25.85;36.49;99514.89;218425;1260;126604;-66
2023/07/22 12:16:58;;;;;;;2.70;2.50;;;;;;;25.83;35.78;99522.20;219226;1257;141297;-66
2023/07/22 12:22:03;;;;;;;5.40;2.50;;;;;;;25.65;35.91;99530.36;218045;1258;1102978;-67
2023/07/22 12:27:08;;;;;;;2.00;1.90;;;;;;;25.71;35.98;99528.00;219855;1257;232121;-69
2023/07/22 12:32:13;;;;;;;2.80;2.10;;;;;;;26.17;36.07;99520.04;220501;1256;140714;-68
2023/07/22 12:37:20;;;;;;;2.10;2.00;;;;;;;26.16;35.80;99533.34;218679;1257;139109;-72
2023/07/22 12:42:26;;;;;;;4.10;2.20;;;;;;;25.89;35.77;99540.34;219621;1257;140286;-78
2023/07/22 12:47:32;;;;;;;5.40;2.10;;;;;;;25.50;36.04;99543.41;218510;1259;139184;-72
2023/07/22 12:52:37;;;;;;;6.00;2.30;;;;;;;25.23;36.80;99555.75;218835;1255;139988;-71
2023/07/22 12:57:41;;;;;;;4.70;1.80;;;;;;;25.62;37.13;99543.52;219109;1257;139386;-74
2023/07/22 13:02:45;;;;;;;2.50;2.30;;;;;;;26.10;36.80;99542.89;218761;1257;141274;-67
2023/07/22 13:07:50;;;;;;;2.30;2.10;;;;;;;26.08;36.25;99535.59;218778;1260;138933;-69
2023/07/22 13:12:56;;;;;;;4.00;2.00;;;;;;;25.96;35.87;99533.73;218542;1260;139041;-70
2023/07/22 13:18:00;;;;;;;3.70;1.80;;;;;;;25.73;35.91;99530.92;217944;1260;139362;-67
2023/07/22 13:23:05;;;;;;;4.10;2.40;;;;;;;25.11;36.09;99541.96;219206;1260;140368;-70
2023/07/22 13:28:10;;;;;;;1.80;1.70;;;;;;;24.78;36.63;99540.38;218031;1260;139660;-69
2023/07/22 13:33:14;;;;;;;4.20;2.30;;;;;;;25.06;36.92;99539.31;218140;1258;139503;-70
2023/07/22 13:38:20;;;;;;;1.60;1.50;;;;;;;25.09;36.49;99529.29;218272;1259;139599;-70
2023/07/22 13:43:27;;;;;;;7.70;4.00;;;;;;;25.08;36.62;99525.30;218107;1259;140230;-67
2023/07/22 13:48:32;;;;;;;5.80;3.30;;;;;;;24.99;36.44;99526.13;218766;1257;140920;-70
2023/07/22 13:53:36;;;;;;;4.20;2.50;;;;;;;24.93;36.33;99527.80;218137;1260;139214;-70
2023/07/22 13:58:41;;;;;;;2.50;2.30;;;;;;;24.86;36.33;99527.51;217950;1259;139353;-70
2023/07/22 14:03:46;;;;;;;1.80;1.70;;;;;;;25.05;36.27;99519.64;218995;1257;139612;-72
2023/07/22 14:08:51;;;;;;;2.40;1.80;;;;;;;25.16;35.61;99520.03;219022;1259;139127;-70
2023/07/22 14:13:56;;;;;;;2.10;1.70;;;;;;;25.18;35.50;99523.48;218437;1256;139633;-68
2023/07/22 14:19:02;;;;;;;2.50;2.00;;;;;;;25.22;35.40;99515.02;218736;1259;140673;-70
2023/07/22 14:24:08;;;;;;;2.50;1.80;;;;;;;25.24;35.03;99514.05;219000;1254;139118;-67
2023/07/22 14:29:13;;;;;;;2.20;2.10;;;;;;;25.10;34.83;99512.17;219964;1254;139103;-71
2023/07/22 14:34:17;;;;;;;2.30;2.00;;;;;;;24.97;34.84;99512.03;220715;1254;140835;-69
2023/07/22 14:39:21;;;;;;;1.70;1.60;;;;;;;24.78;34.92;99509.55;218353;1257;140245;-70
2023/07/22 14:44:26;;;;;;;4.30;1.90;;;;;;;24.74;34.76;99509.15;218838;1260;139140;-71
2023/07/22 14:49:31;;;;;;;6.40;6.00;;;;;;;24.64;34.48;99513.15;219265;1257;139616;-70
2023/07/22 14:54:36;;;;;;;4.90;2.70;;;;;;;24.70;34.46;99508.88;219168;1259;139847;-70
2023/07/22 14:59:41;;;;;;;4.70;2.50;;;;;;;24.73;34.21;99505.86;218959;1258;140151;-70
2023/07/22 15:04:45;;;;;;;4.00;2.60;;;;;;;24.64;34.22;99508.95;218884;1254;139198;-66
2023/07/22 15:09:53;;;;;;;2.90;1.70;;;;;;;24.63;33.90;99508.99;218317;1258;139062;-70
2023/07/22 15:15:00;;;;;;;2.40;2.20;;;;;;;24.59;33.81;99508.21;218198;1257;139905;-65
2023/07/22 15:20:06;;;;;;;5.50;2.30;;;;;;;24.56;33.87;99505.20;218767;1256;139069;-69
2023/07/22 15:25:10;;;;;;;2.40;2.20;;;;;;;24.36;33.47;99509.98;218181;1257;139301;-67
2023/07/22 15:30:14;;;;;;;2.90;2.60;;;;;;;24.18;33.58;99507.27;218032;1258;139165;-67
2023/07/22 15:35:19;;;;;;;1.90;1.60;;;;;;;23.93;33.60;99509.55;218503;1259;139245;-75
2023/07/22 15:40:28;;;;;;;2.50;2.00;;;;;;;23.54;33.76;99511.79;218271;1259;139697;-67
2023/07/22 15:45:33;;;;;;;1.90;1.80;;;;;;;23.40;34.01;99508.23;218078;1259;139538;-73
2023/07/22 15:50:37;;;;;;;2.90;2.20;;;;;;;23.52;34.25;99510.20;218356;1256;139031;-75
2023/07/22 15:55:43;;;;;;;2.80;2.50;;;;;;;23.58;34.50;99508.35;218624;1259;140508;-75
2023/07/22 16:00:48;;;;;;;3.30;2.10;;;;;;;23.62;34.61;99508.08;219071;1259;139137;-74
2023/07/22 16:05:53;;;;;;;11.50;2.70;;;;;;;23.48;34.78;99507.24;218848;1257;140450;-65
2023/07/22 16:11:00;;;;;;;2.30;1.80;;;;;;;23.43;34.88;99505.31;218443;1259;138907;-71
2023/07/22 16:16:05;;;;;;;3.20;2.20;;;;;;;23.40;34.82;99506.19;218668;1257;140060;-66
2023/07/22 16:21:10;;;;;;;2.60;2.40;;;;;;;23.21;34.99;99513.23;219097;1257;139744;-71
2023/07/22 16:26:14;;;;;;;2.10;1.90;;;;;;;22.98;35.09;99523.04;219586;1257;139324;-70
2023/07/22 16:31:19;;;;;;;4.10;1.90;;;;;;;22.85;35.46;99525.85;219619;1256;140416;-66
2023/07/22 16:36:24;;;;;;;6.20;2.50;;;;;;;22.95;35.67;99524.92;218895;1257;139917;-66
2023/07/22 16:41:28;;;;;;;6.00;2.40;;;;;;;22.99;35.78;99524.79;219665;1257;139801;-72
2023/07/22 16:46:35;;;;;;;3.10;2.70;;;;;;;22.95;35.60;99528.34;219286;1255;139345;-70
2023/07/22 16:51:40;;;;;;;2.30;2.20;;;;;;;22.80;35.66;99528.52;218689;1255;139268;-70
2023/07/22 16:56:44;;;;;;;2.80;2.60;;;;;;;22.58;35.70;99530.95;219318;1256;139249;-70
2023/07/22 17:01:52;;;;;;;2.50;2.40;;;;;;;22.50;35.62;99534.40;219145;1256;139193;-68
2023/07/22 17:06:58;;;;;;;2.50;2.30;;;;;;;22.54;35.77;99533.48;217786;1259;139493;-69
2023/07/22 17:12:06;;;;;;;2.50;2.30;;;;;;;22.57;35.92;99533.52;218330;1254;139346;-67
2023/07/22 17:17:14;;;;;;;8.40;2.70;;;;;;;22.49;36.09;99537.91;218202;1259;139724;-68
2023/07/22 17:22:21;;;;;;;2.50;2.30;;;;;;;22.40;36.19;99538.57;218129;1257;211197;-69
2023/07/22 17:27:26;;;;;;;2.70;2.50;;;;;;;22.28;36.22;99549.33;218259;1257;139199;-68
2023/07/22 17:32:33;;;;;;;3.20;2.50;;;;;;;22.10;36.36;99544.77;218407;1254;139251;-67
2023/07/22 17:37:38;;;;;;;2.50;1.90;;;;;;;21.95;36.30;99541.90;218875;1257;141274;-68
2023/07/22 17:42:42;;;;;;;2.50;2.20;;;;;;;21.82;36.64;99548.59;219126;1254;140057;-68
2023/07/22 17:47:46;;;;;;;2.80;2.10;;;;;;;21.71;36.58;99544.65;219421;1254;140503;-68
2023/07/22 17:52:51;;;;;;;2.10;2.00;;;;;;;21.55;36.58;99549.20;218375;1254;140035;-67
2023/07/22 17:57:55;;;;;;;3.40;2.50;;;;;;;21.39;36.79;99553.03;219273;1254;141634;-68
2023/07/22 18:03:00;;;;;;;2.00;1.90;;;;;;;21.21;36.96;99557.61;220258;1256;140021;-67
2023/07/22 18:08:06;;;;;;;2.70;2.50;;;;;;;21.08;37.20;99559.87;220631;1256;139195;-67
2023/07/22 18:13:10;;;;;;;2.80;2.00;;;;;;;20.99;37.38;99559.96;220635;1254;140962;-68
2023/07/22 18:18:15;;;;;;;1.80;1.70;;;;;;;20.89;37.84;99561.45;220741;1254;139621;-68
2023/07/22 18:23:20;;;;;;;2.30;2.10;;;;;;;20.77;38.04;99569.92;220636;1254;139578;-69
2023/07/22 18:28:26;;;;;;;5.80;2.50;;;;;;;20.64;38.71;99575.09;219316;1254;140800;-69
2023/07/22 18:33:31;;;;;;;3.80;2.70;;;;;;;20.45;39.43;99577.99;218976;1256;141170;-68
2023/07/22 18:38:36;;;;;;;4.00;2.50;;;;;;;20.20;40.00;99575.29;219238;1256;139241;-69
2023/07/22 18:43:41;;;;;;;5.40;3.10;;;;;;;19.87;40.46;99579.14;217966;1256;139399;-68
2023/07/22 18:48:46;;;;;;;2.30;2.10;;;;;;;19.54;41.29;99588.16;218769;1256;140040;-67
2023/07/22 18:53:54;;;;;;;3.20;2.70;;;;;;;19.26;42.20;99595.48;217807;1259;139330;-70
2023/07/22 18:58:58;;;;;;;14.20;2.60;;;;;;;18.91;42.77;99597.42;218316;1255;139224;-71
2023/07/22 19:04:04;;;;;;;2.60;2.40;;;;;;;18.56;43.47;99598.23;218702;1259;140177;-70
2023/07/22 19:09:20;;;;;;;5.00;2.60;;;;;;;18.22;44.06;99604.15;217903;1257;140089;-70
2023/07/22 19:14:34;;;;;;;3.60;2.90;;;;;;;17.82;44.66;99611.95;218053;1256;139243;-69
2023/07/22 19:19:41;;;;;;;3.20;2.90;;;;;;;17.54;45.49;99624.95;218272;1257;141637;-69
2023/07/22 19:24:47;;;;;;;7.00;3.00;;;;;;;17.26;46.04;99627.44;218267;1256;139946;-69
2023/07/22 19:29:52;;;;;;;2.70;2.30;;;;;;;16.95;46.50;99633.80;218296;1257;142342;-69
2023/07/22 19:34:56;;;;;;;3.00;2.60;;;;;;;16.62;47.19;99636.61;218358;1256;139260;-69
2023/07/22 19:40:01;;;;;;;9.30;3.00;;;;;;;16.29;48.10;99634.41;218525;1256;139305;-69
2023/07/22 19:45:09;;;;;;;4.00;2.20;;;;;;;16.00;48.66;99627.77;219679;1256;139521;-70
2023/07/22 19:50:15;;;;;;;4.10;2.80;;;;;;;15.74;49.16;99628.59;218808;1256;139533;-68
2023/07/22 19:55:20;;;;;;;3.20;2.90;;;;;;;15.48;49.76;99632.46;218372;1256;140466;-68
2023/07/22 20:00:25;;;;;;;6.10;2.90;;;;;;;15.33;50.45;99633.14;219470;1255;139332;-69
2023/07/22 20:05:30;;;;;;;3.40;3.10;;;;;;;15.17;50.84;99636.30;217944;1259;139735;-69
2023/07/22 20:10:35;;;;;;;4.30;2.70;;;;;;;14.97;51.03;99634.66;220604;1256;139750;-70
2023/07/22 20:15:41;;;;;;;3.80;3.10;;;;;;;14.76;51.19;99641.21;219908;1256;139315;-69
2023/07/22 20:20:46;;;;;;;7.60;3.40;;;;;;;14.54;51.41;99646.13;218733;1256;141087;-68
2023/07/22 20:25:52;;;;;;;4.70;2.40;;;;;;;14.37;51.88;99648.61;219278;1256;139588;-68
2023/07/22 20:30:59;;;;;;;2.50;2.20;;;;;;;14.23;52.01;99652.56;218706;1259;138911;-69
2023/07/22 20:36:05;;;;;;;6.70;2.30;;;;;;;14.12;52.61;99657.33;218344;1256;141348;-69
2023/07/22 20:41:13;;;;;;;11.40;2.70;;;;;;;13.95;52.87;99661.52;219551;1256;139020;-69
2023/07/22 20:46:18;;;;;;;8.30;3.20;;;;;;;13.75;53.20;99670.13;218225;1256;140388;-68
2023/07/22 20:51:22;;;;;;;3.60;3.10;;;;;;;13.64;53.76;99670.10;218748;1254;141295;-67
2023/07/22 20:56:27;;;;;;;3.50;2.90;;;;;;;13.50;54.24;99676.93;218815;1254;139408;-68
2023/07/22 21:01:33;;;;;;;10.10;3.70;;;;;;;13.33;54.70;99677.33;218159;1258;139167;-70
2023/07/22 21:06:38;;;;;;;4.20;3.20;;;;;;;13.19;55.11;99680.66;218571;1258;140254;-70
2023/07/22 21:11:43;;;;;;;5.10;3.10;;;;;;;13.10;55.86;99683.30;218267;1258;140071;-69
2023/07/22 21:16:49;;;;;;;10.30;4.60;;;;;;;13.03;56.07;99689.15;219640;1254;141365;-70
2023/07/22 21:21:58;;;;;;;8.00;3.90;;;;;;;12.86;56.17;99688.33;217880;1257;140274;-69
2023/07/22 21:27:04;;;;;;;8.30;4.40;;;;;;;12.78;56.64;99687.55;219967;1254;140576;-70
2023/07/22 21:32:09;;;;;;;4.10;3.70;;;;;;;12.67;57.00;99687.73;218328;1254;140005;-69
2023/07/22 21:37:15;;;;;;;7.50;4.30;;;;;;;12.60;56.97;99682.98;218097;1258;140320;-69
2023/07/22 21:42:21;;;;;;;3.70;3.40;;;;;;;12.44;57.45;99690.82;218543;1257;141445;-68
2023/07/22 21:47:27;;;;;;;4.80;3.90;;;;;;;12.30;57.84;99693.20;219134;1256;139396;-70
2023/07/22 21:52:32;;;;;;;5.00;4.00;;;;;;;12.21;57.99;99696.66;220053;1257;139653;-70
2023/07/22 21:57:37;;;;;;;4.40;4.10;;;;;;;12.13;58.17;99694.41;219744;1254;139731;-70
2023/07/22 22:02:42;;;;;;;4.70;4.30;;;;;;;11.94;58.26;99693.16;220715;1256;141444;-69
2023/07/22 22:07:48;;;;;;;5.20;4.00;;;;;;;11.80;58.87;99693.96;220043;1255;139619;-69
2023/07/22 22:12:52;;;;;;;7.10;4.60;;;;;;;11.74;59.21;99695.66;220447;1256;139299;-70
2023/07/22 22:17:56;;;;;;;7.70;4.90;;;;;;;11.70;59.45;99695.91;219508;1255;140862;-69
2023/07/22 22:23:04;;;;;;;6.30;3.90;;;;;;;11.61;59.80;99703.08;218084;1257;139091;-69
2023/07/22 22:28:10;;;;;;;9.60;5.30;;;;;;;11.50;60.21;99701.94;218562;1256;140202;-69
2023/07/22 22:33:15;;;;;;;7.70;5.60;;;;;;;11.41;60.48;99705.79;218059;1255;139531;-68
2023/07/22 22:38:20;;;;;;;9.70;5.30;;;;;;;11.35;60.58;99713.36;219015;1256;140171;-68
2023/07/22 22:43:24;;;;;;;6.50;4.90;;;;;;;11.32;61.01;99720.30;218401;1256;139509;-69
2023/07/22 22:48:28;;;;;;;5.00;4.30;;;;;;;11.26;61.23;99720.80;217929;1257;139700;-69
2023/07/22 22:53:34;;;;;;;8.50;4.90;;;;;;;11.14;61.30;99720.04;218749;1257;140559;-68
2023/07/22 22:58:38;;;;;;;7.70;5.60;;;;;;;11.03;61.64;99718.17;218283;1259;140700;-68
2023/07/22 23:03:43;;;;;;;7.30;5.10;;;;;;;10.93;62.03;99719.52;218855;1256;140294;-69
2023/07/22 23:08:48;;;;;;;5.60;5.00;;;;;;;10.83;62.25;99713.30;218503;1256;151462;-68
2023/07/22 23:13:53;;;;;;;7.60;5.40;;;;;;;10.80;62.80;99713.73;218223;1259;139721;-68
2023/07/22 23:18:58;;;;;;;8.60;5.60;;;;;;;10.78;62.84;99708.24;218785;1256;140664;-67
2023/07/22 23:24:03;;;;;;;10.00;5.70;;;;;;;10.67;62.89;99712.94;217959;1257;142336;-68
2023/07/22 23:29:08;;;;;;;7.10;6.10;;;;;;;10.52;63.22;99708.29;218454;1255;208006;-67